Time;durP1;ratioP1;P1;durP2;ratioP2;P2;SDS_P1;SDS_P2;PMS_P1;PMS_P2;Temp;Humidity;BMP_temperature;BMP_pressure;BME280_temperature;BME280_humidity;BME280_pressure;Samples;Min_cycle;Max_cycle;Signal;HPM_P1;HPM_P2
2022/09/04 00:00:11;;;;;;;5.63;1.05;;;12.40;99.90;;;;;;5040042;28;20043;-75
2022/09/04 00:03:19;;;;;;;7.60;1.48;;;12.50;99.90;;;;;;5047267;28;20105;-74
2022/09/04 00:06:04;;;;;;;2.75;0.50;;;12.60;99.90;;;;;;5049972;28;20074;-74
2022/09/04 00:08:59;;;;;;;2.13;0.60;;;12.70;99.90;;;;;;5026390;28;20083;-74
2022/09/04 00:11:43;;;;;;;9.23;0.82;;;12.70;99.90;;;;;;5049699;28;20104;-75
2022/09/04 00:14:21;;;;;;;5.13;0.80;;;12.70;99.90;;;;;;5042202;28;20017;-75
2022/09/04 00:17:14;;;;;;;1.98;0.73;;;12.70;99.90;;;;;;5022224;28;20041;-73
2022/09/04 00:19:58;;;;;;;4.97;0.70;;;12.80;99.90;;;;;;5023670;28;20049;-74
2022/09/04 00:22:25;;;;;;;5.53;1.30;;;12.80;99.90;;;;;;5029744;28;20067;-75
2022/09/04 00:25:09;;;;;;;1.38;0.65;;;13.00;99.90;;;;;;5029691;28;20507;-74
2022/09/04 00:27:44;;;;;;;3.72;1.00;;;13.00;99.90;;;;;;5028444;28;20018;-75
2022/09/04 00:30:24;;;;;;;4.88;0.50;;;13.00;99.90;;;;;;5028629;28;20029;-74
2022/09/04 00:33:35;;;;;;;5.18;1.27;;;13.00;99.90;;;;;;5022827;28;20152;-76
2022/09/04 00:36:04;;;;;;;6.93;0.68;;;13.00;99.90;;;;;;5018621;28;20458;-76
2022/09/04 00:38:37;;;;;;;4.00;0.63;;;13.10;99.90;;;;;;5025456;28;20037;-75
2022/09/04 00:41:13;;;;;;;1.30;0.43;;;13.20;99.90;;;;;;5027220;28;20025;-73
2022/09/04 00:44:17;;;;;;;3.50;0.68;;;13.30;99.90;;;;;;5042371;28;20068;-74
2022/09/04 00:46:58;;;;;;;1.80;0.75;;;13.30;99.90;;;;;;5025300;28;20059;-75
2022/09/04 00:49:56;;;;;;;2.97;0.95;;;13.40;99.90;;;;;;5025337;28;20433;-77
2022/09/04 00:52:33;;;;;;;2.85;0.70;;;13.40;99.90;;;;;;5024173;28;20052;-75
2022/09/04 00:55:09;;;;;;;5.65;1.48;;;13.50;99.90;;;;;;5024095;28;20359;-74
2022/09/04 00:58:10;;;;;;;4.75;1.13;;;13.50;99.90;;;;;;5025968;28;20061;-75
2022/09/04 01:00:37;;;;;;;2.17;0.47;;;13.50;99.90;;;;;;5024324;28;20025;-74
2022/09/04 01:03:07;;;;;;;6.05;1.30;;;13.60;99.90;;;;;;5025606;28;20029;-74
2022/09/04 01:05:47;;;;;;;3.65;0.82;;;13.70;99.90;;;;;;5025298;28;20042;-76
2022/09/04 01:08:39;;;;;;;3.17;0.85;;;13.70;99.90;;;;;;5024487;28;20116;-75
2022/09/04 01:11:09;;;;;;;1.38;0.52;;;13.70;99.90;;;;;;5025362;28;20025;-73
2022/09/04 01:14:08;;;;;;;6.82;1.30;;;13.20;99.90;;;;;;5025173;28;20498;-73
2022/09/04 01:17:13;;;;;;;6.18;0.95;;;13.00;99.90;;;;;;5030659;28;20441;-73
2022/09/04 01:19:55;;;;;;;4.78;0.73;;;12.80;99.90;;;;;;5024547;28;20031;-73
2022/09/04 01:23:11;;;;;;;8.20;1.48;;;12.80;99.90;;;;;;5044111;28;20528;-73
2022/09/04 01:26:03;;;;;;;4.07;0.60;;;12.80;99.90;;;;;;5022488;28;20049;-75
2022/09/04 01:28:36;;;;;;;2.08;0.63;;;12.90;99.90;;;;;;5041986;28;20484;-74
2022/09/04 01:31:35;;;;;;;1.75;0.38;;;13.00;99.90;;;;;;5049409;28;20029;-74
2022/09/04 01:34:32;;;;;;;3.30;0.73;;;13.10;99.90;;;;;;5049384;28;20059;-74
2022/09/04 01:37:12;;;;;;;3.30;0.50;;;13.20;99.90;;;;;;5048822;28;20477;-75
2022/09/04 01:39:42;;;;;;;4.35;0.93;;;13.20;99.90;;;;;;5041745;28;20100;-75
2022/09/04 01:42:22;;;;;;;7.47;1.15;;;13.40;99.90;;;;;;5039223;28;20033;-76
2022/09/04 01:44:49;;;;;;;4.38;1.33;;;13.50;99.90;;;;;;5039258;28;20046;-76
2022/09/04 01:47:27;;;;;;;6.18;1.20;;;13.70;99.90;;;;;;5039463;28;20056;-77
2022/09/04 01:50:19;;;;;;;6.03;1.08;;;13.90;99.90;;;;;;5038886;28;21370;-76
2022/09/04 01:53:02;;;;;;;4.55;0.85;;;14.00;99.90;;;;;;5043789;28;20030;-76
2022/09/04 01:55:47;;;;;;;4.90;1.00;;;13.90;99.90;;;;;;5045629;28;20017;-76
2022/09/04 01:58:46;;;;;;;3.08;0.68;;;13.80;99.90;;;;;;5044824;28;20369;-74
2022/09/04 02:01:22;;;;;;;9.57;1.77;;;13.60;99.90;;;;;;5040526;28;20052;-73
2022/09/04 02:04:06;;;;;;;3.20;1.17;;;13.60;99.90;;;;;;5044534;28;20540;-74
2022/09/04 02:06:51;;;;;;;5.13;0.80;;;13.60;99.90;;;;;;5027213;28;20105;-76
2022/09/04 02:09:30;;;;;;;3.58;1.10;;;13.70;99.90;;;;;;5043111;28;20494;-76
2022/09/04 02:12:06;;;;;;;1.88;0.75;;;13.80;99.90;;;;;;5042750;28;20029;-76
2022/09/04 02:14:46;;;;;;;10.55;1.02;;;14.00;99.90;;;;;;5042319;28;20049;-75
2022/09/04 02:18:05;;;;;;;5.60;0.80;;;14.30;99.90;;;;;;5042174;28;20048;-75
2022/09/04 02:20:33;;;;;;;4.15;0.75;;;14.40;99.90;;;;;;4956274;28;20030;-74
2022/09/04 02:23:18;;;;;;;4.15;1.15;;;14.30;99.90;;;;;;5030386;28;20039;-75
2022/09/04 02:26:11;;;;;;;8.27;1.08;;;14.20;99.90;;;;;;5026512;28;20025;-75
2022/09/04 02:29:01;;;;;;;5.57;1.38;;;14.20;99.90;;;;;;5048367;28;20386;-75
2022/09/04 02:31:44;;;;;;;4.20;0.95;;;14.10;99.90;;;;;;5035643;28;20108;-75
2022/09/04 02:34:22;;;;;;;5.25;1.20;;;14.00;99.90;;;;;;5033024;28;20068;-75
2022/09/04 02:37:07;;;;;;;3.38;0.60;;;13.90;99.90;;;;;;5032918;28;20071;-75
2022/09/04 02:39:51;;;;;;;4.15;1.25;;;13.90;99.90;;;;;;5032939;28;20462;-76
2022/09/04 02:42:58;;;;;;;8.63;1.17;;;14.10;99.90;;;;;;5038402;28;20111;-76
2022/09/04 02:46:04;;;;;;;5.65;1.48;;;14.20;99.90;;;;;;5041379;28;20017;-76
2022/09/04 02:48:50;;;;;;;4.22;1.33;;;14.20;99.90;;;;;;5041241;28;20532;-75
2022/09/04 02:51:46;;;;;;;6.38;0.90;;;14.20;99.90;;;;;;5042215;28;20048;-77
2022/09/04 02:54:42;;;;;;;5.28;1.13;;;14.30;99.90;;;;;;5043805;28;20509;-76
2022/09/04 02:57:19;;;;;;;5.07;1.10;;;14.40;99.90;;;;;;5039502;28;20029;-76
2022/09/04 03:00:18;;;;;;;5.30;1.52;;;14.40;99.90;;;;;;5043104;28;20025;-76
2022/09/04 03:03:07;;;;;;;4.50;0.95;;;14.50;99.90;;;;;;5048176;28;20064;-77
2022/09/04 03:05:55;;;;;;;6.00;1.20;;;14.50;99.90;;;;;;5033210;28;20033;-77
2022/09/04 03:08:44;;;;;;;5.30;0.88;;;14.60;99.90;;;;;;5033259;28;20060;-76
2022/09/04 03:11:17;;;;;;;5.22;1.13;;;14.50;99.90;;;;;;5033364;28;20025;-76
2022/09/04 03:14:07;;;;;;;5.72;1.75;;;14.50;99.90;;;;;;5033480;28;20045;-77
2022/09/04 03:16:52;;;;;;;7.22;1.15;;;14.40;99.90;;;;;;5032998;28;20045;-77
2022/09/04 03:19:38;;;;;;;3.38;1.02;;;14.30;99.90;;;;;;5033344;28;20018;-77
2022/09/04 03:22:12;;;;;;;3.17;0.88;;;14.30;99.90;;;;;;5015454;28;20029;-78
2022/09/04 03:25:01;;;;;;;2.50;0.73;;;14.10;99.90;;;;;;5033318;28;20041;-77
2022/09/04 03:27:32;;;;;;;5.22;0.85;;;14.20;99.90;;;;;;5034119;28;20021;-77
2022/09/04 03:30:17;;;;;;;5.80;1.25;;;14.30;99.90;;;;;;5042022;28;20066;-78
2022/09/04 03:33:02;;;;;;;8.85;0.90;;;14.40;99.90;;;;;;5043387;28;20057;-77
2022/09/04 03:35:48;;;;;;;5.95;0.68;;;14.50;99.90;;;;;;5041854;28;20122;-78
2022/09/04 03:38:33;;;;;;;;;;;14.40;99.90;;;;;;5043130;28;20032;-77
2022/09/04 03:41:30;;;;;;;7.15;1.00;;;14.20;99.90;;;;;;5043341;28;20354;-78
2022/09/04 03:44:23;;;;;;;8.95;0.70;;;14.10;99.90;;;;;;5048577;28;20133;-77
2022/09/04 03:47:14;;;;;;;2.42;0.70;;;13.90;99.90;;;;;;5053324;28;20013;-78
2022/09/04 03:50:03;;;;;;;10.32;0.82;;;13.90;99.90;;;;;;5052623;28;20508;-76
2022/09/04 03:53:04;;;;;;;5.53;1.08;;;13.90;99.90;;;;;;5042220;28;20048;-76
2022/09/04 03:55:43;;;;;;;6.38;1.13;;;14.00;99.90;;;;;;5017000;28;20025;-77
2022/09/04 03:58:25;;;;;;;7.15;1.05;;;13.90;99.90;;;;;;5032506;28;20097;-77
2022/09/04 04:01:11;;;;;;;5.93;1.20;;;14.00;99.90;;;;;;5032275;28;20100;-76
2022/09/04 04:03:51;;;;;;;1.95;1.05;;;14.20;99.90;;;;;;5032259;28;20109;-76
2022/09/04 04:07:08;;;;;;;3.38;0.70;;;14.20;99.90;;;;;;5042775;28;20029;-76
2022/09/04 04:09:35;;;;;;;;;;;14.10;99.90;;;;;;5031705;28;20033;-76
2022/09/04 04:12:24;;;;;;;6.45;1.80;;;14.00;99.90;;;;;;5041018;28;19999;-75
2022/09/04 04:15:13;;;;;;;5.05;1.02;;;14.00;99.90;;;;;;5042115;28;20059;-75
2022/09/04 04:17:56;;;;;;;6.95;1.17;;;13.90;99.90;;;;;;5046351;28;20041;-77
2022/09/04 04:20:36;;;;;;;3.72;1.38;;;13.90;99.90;;;;;;5046621;28;20450;-76
2022/09/04 04:23:23;;;;;;;4.35;1.67;;;13.90;99.90;;;;;;5046642;28;20013;-76
2022/09/04 04:26:07;;;;;;;;;;;13.90;99.90;;;;;;5045488;28;20037;-78
2022/09/04 04:29:07;;;;;;;3.95;1.48;;;14.10;99.90;;;;;;5045786;28;19976;-77
2022/09/04 04:32:09;;;;;;;10.40;1.70;;;14.20;99.90;;;;;;5045423;28;20033;-76
2022/09/04 04:34:43;;;;;;;2.92;0.80;;;14.20;99.90;;;;;;5044470;28;20026;-76
2022/09/04 04:37:15;;;;;;;12.00;1.00;;;14.10;99.90;;;;;;5044707;28;20033;-76
2022/09/04 04:39:45;;;;;;;5.18;1.17;;;13.90;99.90;;;;;;5044290;28;20021;-76
2022/09/04 04:42:16;;;;;;;6.07;1.20;;;13.50;99.90;;;;;;5045422;28;20111;-75
2022/09/04 04:47:55;;;;;;;6.47;1.00;;;12.70;99.90;;;;;;5045170;28;20045;-75
2022/09/04 04:50:54;;;;;;;3.72;1.45;;;12.50;99.90;;;;;;5044060;28;20451;-75
2022/09/04 04:53:59;;;;;;;9.25;1.45;;;12.50;99.90;;;;;;5046118;28;20053;-76
2022/09/04 04:56:53;;;;;;;5.63;1.02;;;12.30;99.90;;;;;;5013727;28;20427;-76
2022/09/04 04:59:53;;;;;;;3.83;1.42;;;12.20;99.90;;;;;;5028640;28;20030;-75
2022/09/04 05:02:29;;;;;;;6.65;0.98;;;12.20;99.90;;;;;;5037452;28;20030;-75
2022/09/04 05:05:12;;;;;;;6.32;1.35;;;12.20;99.90;;;;;;5045105;28;20390;-76
2022/09/04 05:07:59;;;;;;;3.75;0.95;;;12.10;99.90;;;;;;5022286;28;20109;-75
2022/09/04 05:11:08;;;;;;;3.78;1.05;;;12.00;99.90;;;;;;5035407;28;20041;-76
2022/09/04 05:14:02;;;;;;;7.55;0.90;;;12.00;99.90;;;;;;5040975;28;20115;-76
2022/09/04 05:16:48;;;;;;;7.65;1.50;;;11.90;99.90;;;;;;5053005;28;20060;-75
2022/09/04 05:19:44;;;;;;;6.18;1.00;;;11.90;99.90;;;;;;5045935;28;20025;-76
2022/09/04 05:22:22;;;;;;;6.53;1.53;;;11.90;99.90;;;;;;5043619;28;20021;-75
2022/09/04 05:24:56;;;;;;;8.52;1.50;;;11.80;99.90;;;;;;5044038;28;20281;-76
2022/09/04 05:27:23;;;;;;;5.47;1.63;;;11.80;99.90;;;;;;5045384;28;20028;-76
2022/09/04 05:30:12;;;;;;;4.15;1.05;;;11.80;99.90;;;;;;5044467;28;20505;-77
2022/09/04 05:32:48;;;;;;;7.45;1.00;;;11.80;99.90;;;;;;5041005;28;20411;-75
2022/09/04 05:35:25;;;;;;;13.27;2.15;;;11.80;99.90;;;;;;5043866;28;20099;-76
2022/09/04 05:38:33;;;;;;;7.93;1.83;;;11.80;99.90;;;;;;5047659;28;20021;-76
2022/09/04 05:41:26;;;;;;;9.02;1.92;;;11.80;99.90;;;;;;5041566;28;20038;-76
2022/09/04 05:44:20;;;;;;;6.13;1.33;;;11.80;99.90;;;;;;5010805;28;20163;-75
2022/09/04 05:47:09;;;;;;;10.27;1.85;;;11.90;99.90;;;;;;5027682;28;20104;-76
2022/09/04 05:49:54;;;;;;;10.25;1.85;;;12.00;99.90;;;;;;5049352;28;20017;-75
2022/09/04 05:52:25;;;;;;;6.37;1.80;;;12.00;99.90;;;;;;5048986;28;20096;-75
2022/09/04 05:55:21;;;;;;;8.27;2.53;;;12.00;99.90;;;;;;5047493;28;20126;-76
2022/09/04 05:58:09;;;;;;;7.53;2.08;;;12.10;99.90;;;;;;5045549;28;20131;-75
2022/09/04 06:01:17;;;;;;;7.57;1.67;;;12.10;99.90;;;;;;5039293;28;20076;-76
2022/09/04 06:04:11;;;;;;;8.05;1.88;;;12.20;99.90;;;;;;5001994;28;20130;-75
2022/09/04 06:06:53;;;;;;;9.32;2.60;;;12.20;99.90;;;;;;5021606;28;20654;-75
2022/09/04 06:09:32;;;;;;;6.38;1.27;;;12.30;99.90;;;;;;5038953;28;20021;-75
2022/09/04 06:12:17;;;;;;;8.85;1.73;;;12.30;99.90;;;;;;5050944;28;20047;-76
2022/09/04 06:14:57;;;;;;;8.02;1.55;;;12.30;99.90;;;;;;5051962;28;20025;-75
2022/09/04 06:17:28;;;;;;;8.02;1.63;;;12.30;99.90;;;;;;5048325;28;20048;-75
2022/09/04 06:20:16;;;;;;;8.77;1.92;;;12.20;99.90;;;;;;5047199;28;20370;-76
2022/09/04 06:23:19;;;;;;;6.65;1.50;;;12.20;99.90;;;;;;5049507;28;20032;-77
2022/09/04 06:26:06;;;;;;;13.43;2.53;;;12.30;99.90;;;;;;5049959;28;20017;-76
2022/09/04 06:28:36;;;;;;;6.20;1.90;;;12.30;99.90;;;;;;5050996;28;20036;-76
2022/09/04 06:31:38;;;;;;;6.35;1.33;;;12.30;99.90;;;;;;5050711;28;20025;-74
2022/09/04 06:34:36;;;;;;;6.28;1.77;;;12.30;99.90;;;;;;5048643;28;20045;-76
2022/09/04 06:37:13;;;;;;;4.97;1.27;;;12.30;99.90;;;;;;5021710;28;20456;-76
2022/09/04 06:39:50;;;;;;;7.68;1.33;;;12.30;99.90;;;;;;5046035;28;20030;-77
2022/09/04 06:42:42;;;;;;;7.65;1.52;;;12.30;99.90;;;;;;5049866;28;20099;-76
2022/09/04 06:45:52;;;;;;;4.18;0.90;;;12.30;99.90;;;;;;5050026;28;20473;-76
2022/09/04 06:48:28;;;;;;;4.22;1.20;;;12.30;99.90;;;;;;5040060;28;20483;-76
2022/09/04 06:51:08;;;;;;;7.22;1.27;;;12.40;99.90;;;;;;5049590;28;20070;-76
2022/09/04 06:53:58;;;;;;;6.18;0.85;;;12.50;99.90;;;;;;5049452;28;20049;-75
2022/09/04 06:56:34;;;;;;;7.78;1.67;;;12.50;99.90;;;;;;5050162;28;20076;-76
2022/09/04 06:59:30;;;;;;;6.88;1.65;;;12.50;99.90;;;;;;5048253;28;20020;-76
2022/09/04 07:02:15;;;;;;;5.50;0.95;;;12.50;99.90;;;;;;5031807;28;20440;-73
2022/09/04 07:05:23;;;;;;;6.68;1.33;;;12.50;99.90;;;;;;5046227;28;20033;-76
2022/09/04 07:08:25;;;;;;;7.15;1.45;;;12.50;99.90;;;;;;5042475;28;20021;-75
2022/09/04 07:11:14;;;;;;;13.18;1.98;;;12.50;99.90;;;;;;4988233;28;20397;-74
2022/09/04 07:13:59;;;;;;;4.05;1.20;;;12.50;99.90;;;;;;5043130;28;20183;-75
2022/09/04 07:17:08;;;;;;;5.97;1.20;;;12.40;99.90;;;;;;5043405;28;20108;-75
2022/09/04 07:20:00;;;;;;;5.70;1.17;;;12.40;99.90;;;;;;5005528;28;20033;-77
2022/09/04 07:22:46;;;;;;;5.97;1.17;;;12.30;99.90;;;;;;5044415;28;20024;-76
2022/09/04 07:25:38;;;;;;;15.05;1.55;;;12.40;99.90;;;;;;5031249;28;20025;-77
2022/09/04 07:28:27;;;;;;;5.63;1.30;;;12.40;99.90;;;;;;5042621;28;20025;-77
2022/09/04 07:31:04;;;;;;;7.70;1.20;;;12.30;99.90;;;;;;5043388;28;20094;-75
2022/09/04 07:34:09;;;;;;;6.35;1.60;;;12.30;99.90;;;;;;5043482;28;20020;-76
2022/09/04 07:37:26;;;;;;;4.22;1.13;;;12.30;99.90;;;;;;5043121;28;20020;-76
2022/09/04 07:40:04;;;;;;;12.95;1.25;;;12.30;99.90;;;;;;5006871;28;20497;-75
2022/09/04 07:43:04;;;;;;;7.03;1.77;;;12.30;99.90;;;;;;5043378;28;20379;-76
2022/09/04 07:45:50;;;;;;;6.55;1.45;;;12.20;99.90;;;;;;5017143;28;20033;-78
2022/09/04 07:48:42;;;;;;;1.75;0.60;;;12.20;99.90;;;;;;5043506;28;20017;-74
2022/09/04 07:51:24;;;;;;;5.30;0.90;;;12.10;99.90;;;;;;5045405;28;20109;-77
2022/09/04 07:54:25;;;;;;;2.47;1.15;;;12.10;99.90;;;;;;5047079;28;20022;-78
2022/09/04 07:57:24;;;;;;;2.05;0.60;;;12.00;99.90;;;;;;5047244;28;20017;-77
2022/09/04 08:00:05;;;;;;;5.80;0.80;;;12.00;99.90;;;;;;5047270;28;20017;-76
2022/09/04 08:02:55;;;;;;;3.95;0.82;;;11.90;99.90;;;;;;5046827;28;20022;-76
2022/09/04 08:05:43;;;;;;;2.72;0.70;;;11.90;99.90;;;;;;5045697;28;20052;-76
2022/09/04 08:08:26;;;;;;;3.05;0.80;;;11.90;99.90;;;;;;5028961;28;20539;-76
2022/09/04 08:11:14;;;;;;;3.88;1.00;;;11.90;99.90;;;;;;5036375;28;20537;-76
2022/09/04 08:14:12;;;;;;;4.30;1.40;;;11.90;99.90;;;;;;5053138;28;20092;-77
2022/09/04 08:16:55;;;;;;;1.15;0.50;;;11.90;99.90;;;;;;5034419;28;20500;-76
2022/09/04 08:19:28;;;;;;;3.08;0.85;;;11.90;99.90;;;;;;5051294;28;20021;-75
2022/09/04 08:21:56;;;;;;;4.07;1.55;;;11.80;99.90;;;;;;5051689;28;20019;-75
2022/09/04 08:24:55;;;;;;;3.33;1.08;;;11.80;99.90;;;;;;5050124;28;20073;-75
2022/09/04 08:27:33;;;;;;;2.97;0.82;;;11.80;99.90;;;;;;5052011;28;20037;-75
2022/09/04 08:30:03;;;;;;;1.88;1.05;;;11.80;99.90;;;;;;5054342;28;20013;-75
2022/09/04 08:32:55;;;;;;;4.88;1.10;;;11.70;99.90;;;;;;5054067;28;20041;-75
2022/09/04 08:35:38;;;;;;;8.27;1.60;;;11.70;99.90;;;;;;5053729;28;20024;-76
2022/09/04 08:38:42;;;;;;;7.80;1.67;;;11.60;99.90;;;;;;5053419;28;20009;-75
2022/09/04 08:42:00;;;;;;;4.57;1.08;;;11.70;99.90;;;;;;5034208;28;20029;-76
2022/09/04 08:44:45;;;;;;;;;;;11.60;99.90;;;;;;5019232;28;20122;-75
2022/09/04 08:47:44;;;;;;;5.80;1.40;;;11.60;99.90;;;;;;5034496;28;19905;-75
2022/09/04 08:50:29;;;;;;;4.28;1.65;;;11.60;99.90;;;;;;5051544;28;20032;-76
2022/09/04 08:53:33;;;;;;;3.65;1.23;;;11.70;99.90;;;;;;5051159;28;20017;-75
2022/09/04 08:56:21;;;;;;;3.80;1.30;;;11.70;99.90;;;;;;5053041;28;20029;-74
2022/09/04 08:59:31;;;;;;;3.35;1.10;;;11.60;99.90;;;;;;5052151;28;20064;-75
2022/09/04 09:02:13;;;;;;;7.75;1.83;;;11.60;99.90;;;;;;5051120;28;20060;-76
2022/09/04 09:04:46;;;;;;;7.03;1.30;;;11.50;99.90;;;;;;5052129;28;20378;-76
2022/09/04 09:07:58;;;;;;;6.38;1.55;;;11.40;99.90;;;;;;5050782;28;20013;-76
2022/09/04 09:10:48;;;;;;;3.22;0.90;;;11.40;99.90;;;;;;5045536;28;20033;-76
2022/09/04 09:13:38;;;;;;;3.90;1.38;;;11.40;99.90;;;;;;5051912;28;20052;-76
2022/09/04 09:16:41;;;;;;;3.58;1.05;;;11.30;99.90;;;;;;5051276;28;20064;-76
2022/09/04 09:19:21;;;;;;;1.95;0.80;;;11.30;99.90;;;;;;5051282;28;20087;-76
2022/09/04 09:22:22;;;;;;;3.47;0.93;;;11.20;99.90;;;;;;5052313;28;20071;-75
2022/09/04 09:25:14;;;;;;;2.85;1.10;;;11.20;99.90;;;;;;5050580;28;20032;-76
2022/09/04 09:28:09;;;;;;;3.90;1.20;;;11.30;99.90;;;;;;5049725;28;20028;-74
2022/09/04 09:31:04;;;;;;;4.13;0.80;;;11.20;99.90;;;;;;5050559;28;20642;-75
2022/09/04 09:33:52;;;;;;;3.85;1.17;;;11.20;99.90;;;;;;5052747;28;20083;-75
2022/09/04 09:36:39;;;;;;;3.75;1.52;;;11.20;99.90;;;;;;5051673;28;20049;-75
2022/09/04 09:39:32;;;;;;;13.90;2.88;;;11.10;99.90;;;;;;5047416;28;20028;-76
2022/09/04 09:42:12;;;;;;;7.55;1.55;;;11.10;99.90;;;;;;5050314;28;20028;-75
2022/09/04 09:45:07;;;;;;;5.28;1.77;;;11.10;99.90;;;;;;5050235;28;20029;-76
2022/09/04 09:47:55;;;;;;;4.93;1.48;;;11.00;99.90;;;;;;5050699;28;20047;-76
2022/09/04 09:50:41;;;;;;;5.03;1.88;;;11.00;99.90;;;;;;5051617;28;20056;-75
2022/09/04 09:53:27;;;;;;;4.07;1.50;;;10.90;99.90;;;;;;5051743;28;20098;-75
2022/09/04 09:55:57;;;;;;;;;;;10.90;99.90;;;;;;5049181;28;20026;-75
2022/09/04 09:59:03;;;;;;;7.43;2.17;;;10.90;99.90;;;;;;5048377;28;20432;-76
2022/09/04 10:01:49;;;;;;;6.47;1.77;;;10.90;99.90;;;;;;5049895;28;20025;-75
2022/09/04 10:04:30;;;;;;;5.85;1.55;;;10.90;99.90;;;;;;5023499;28;20033;-76
2022/09/04 10:07:35;;;;;;;4.85;1.75;;;10.90;99.90;;;;;;5052184;28;20009;-75
2022/09/04 10:10:33;;;;;;;3.75;1.65;;;10.90;99.90;;;;;;5050468;28;20021;-76
2022/09/04 10:13:37;;;;;;;4.60;2.05;;;10.90;99.90;;;;;;5049531;28;20029;-76
2022/09/04 10:16:05;;;;;;;5.75;2.47;;;10.90;99.90;;;;;;5023346;28;20141;-75
2022/09/04 10:18:35;;;;;;;11.63;2.22;;;10.90;99.90;;;;;;5050458;28;20568;-76
2022/09/04 10:21:49;;;;;;;3.25;1.90;;;10.90;99.90;;;;;;5051423;28;20108;-75
2022/09/04 10:24:29;;;;;;;2.88;1.55;;;10.90;99.90;;;;;;5050061;28;20115;-75
2022/09/04 10:27:15;;;;;;;4.82;2.00;;;10.80;99.90;;;;;;5048111;28;20347;-75
2022/09/04 10:29:47;;;;;;;3.67;1.65;;;10.80;99.90;;;;;;5049816;28;20394;-75
2022/09/04 10:32:32;;;;;;;5.32;1.20;;;10.80;99.90;;;;;;5051202;28;20028;-76
2022/09/04 10:35:26;;;;;;;6.00;2.17;;;10.80;99.90;;;;;;5031560;28;20014;-76
2022/09/04 10:38:12;;;;;;;3.83;1.45;;;10.80;99.90;;;;;;5038920;28;20047;-75
2022/09/04 10:41:27;;;;;;;4.38;1.17;;;10.80;99.90;;;;;;5046265;28;20075;-75
2022/09/04 10:44:11;;;;;;;4.78;1.30;;;10.80;99.90;;;;;;5047195;28;20035;-75
2022/09/04 10:46:48;;;;;;;11.90;2.20;;;10.70;99.90;;;;;;5048417;28;20017;-76
2022/09/04 10:49:57;;;;;;;5.13;1.70;;;10.70;99.90;;;;;;5049190;28;20474;-76
2022/09/04 10:52:40;;;;;;;6.18;2.03;;;10.70;99.90;;;;;;4969834;28;20031;-75
2022/09/04 10:55:19;;;;;;;3.95;1.65;;;10.60;99.90;;;;;;5047783;28;20040;-75
2022/09/04 10:57:49;;;;;;;3.58;1.80;;;10.60;99.90;;;;;;5030780;28;20471;-75
2022/09/04 11:00:23;;;;;;;5.60;1.83;;;10.50;99.90;;;;;;5049230;28;20017;-75
2022/09/04 11:03:12;;;;;;;6.38;1.55;;;10.50;99.90;;;;;;5045448;28;20501;-75
2022/09/04 11:06:01;;;;;;;5.60;1.58;;;10.50;99.90;;;;;;5050232;28;20108;-74
2022/09/04 11:08:44;;;;;;;2.78;1.40;;;10.50;99.90;;;;;;5049532;28;20044;-76
2022/09/04 11:11:24;;;;;;;5.80;1.60;;;10.50;99.90;;;;;;5049360;28;20021;-76
2022/09/04 11:14:10;;;;;;;4.95;1.35;;;10.50;99.90;;;;;;5046234;28;20099;-76
2022/09/04 11:17:12;;;;;;;8.65;2.72;;;10.50;99.90;;;;;;5048163;28;20049;-76
2022/09/04 11:20:17;;;;;;;6.25;1.75;;;10.40;99.90;;;;;;5051939;28;20028;-75
2022/09/04 11:22:56;;;;;;;9.15;1.70;;;10.50;99.90;;;;;;5048790;28;20111;-76
2022/09/04 11:26:07;;;;;;;4.75;1.83;;;10.40;99.90;;;;;;5051255;28;20098;-76
2022/09/04 11:28:47;;;;;;;4.45;1.52;;;10.40;99.90;;;;;;5012466;28;20029;-76
2022/09/04 11:31:33;;;;;;;2.33;1.33;;;10.40;99.90;;;;;;5053628;28;20017;-76
2022/09/04 11:34:43;;;;;;;4.97;2.25;;;10.30;99.90;;;;;;5052377;28;20441;-77
2022/09/04 11:37:42;;;;;;;3.72;1.55;;;10.30;99.90;;;;;;5053829;28;20024;-76
2022/09/04 11:40:45;;;;;;;5.75;2.30;;;10.20;99.90;;;;;;5049780;28;20021;-75
2022/09/04 11:43:35;;;;;;;16.05;2.00;;;10.20;99.90;;;;;;5050144;28;20079;-76
2022/09/04 11:46:28;;;;;;;7.25;2.17;;;10.20;99.90;;;;;;5050806;28;20025;-77
2022/09/04 11:49:21;;;;;;;3.40;1.52;;;10.20;99.90;;;;;;5029368;28;20363;-76
2022/09/04 11:52:02;;;;;;;2.65;1.63;;;10.20;99.90;;;;;;5053739;28;20028;-76
2022/09/04 11:54:45;;;;;;;3.85;1.67;;;10.20;99.90;;;;;;5051577;28;20386;-77
2022/09/04 11:57:30;;;;;;;5.00;1.85;;;10.20;99.90;;;;;;5051488;28;20395;-77
2022/09/04 12:00:10;;;;;;;1.83;1.08;;;10.10;99.90;;;;;;5050926;28;20020;-76
2022/09/04 12:02:38;;;;;;;5.60;1.77;;;10.10;99.90;;;;;;5052386;28;20021;-77
2022/09/04 12:05:44;;;;;;;7.50;1.90;;;10.10;99.90;;;;;;5052091;28;20025;-76
2022/09/04 12:08:35;;;;;;;4.60;2.53;;;10.10;99.90;;;;;;5037766;28;20543;-77
2022/09/04 12:11:44;;;;;;;4.93;1.50;;;10.10;99.90;;;;;;5043046;28;20026;-76
2022/09/04 12:14:21;;;;;;;4.68;1.20;;;10.10;99.90;;;;;;5015375;28;20113;-76
2022/09/04 12:17:16;;;;;;;4.45;1.42;;;10.10;99.90;;;;;;5026869;28;20049;-76
2022/09/04 12:20:28;;;;;;;3.55;1.48;;;10.10;99.90;;;;;;5025396;28;20034;-76
2022/09/04 12:23:05;;;;;;;4.50;1.35;;;10.10;99.90;;;;;;5029205;28;20064;-76
2022/09/04 12:26:11;;;;;;;2.50;1.67;;;10.00;99.90;;;;;;5034285;28;20029;-76
2022/09/04 12:28:56;;;;;;;4.93;1.50;;;10.00;99.90;;;;;;5034460;28;20032;-76
2022/09/04 12:31:30;;;;;;;5.00;1.40;;;10.00;99.90;;;;;;5033913;28;20459;-77
2022/09/04 12:34:25;;;;;;;2.92;1.35;;;10.00;99.90;;;;;;5034130;28;20060;-76
2022/09/04 12:37:18;;;;;;;1.92;1.30;;;10.00;99.90;;;;;;5033317;28;20169;-76
2022/09/04 12:39:52;;;;;;;7.38;1.60;;;10.00;99.90;;;;;;5034236;28;20121;-77
2022/09/04 12:42:41;;;;;;;2.50;1.13;;;10.00;99.90;;;;;;5034040;28;20021;-76
2022/09/04 12:45:46;;;;;;;3.55;1.45;;;10.00;99.90;;;;;;5034261;28;20044;-76
2022/09/04 12:48:34;;;;;;;2.97;1.30;;;10.00;99.90;;;;;;5021151;28;20116;-76
2022/09/04 12:51:18;;;;;;;3.33;1.25;;;10.00;99.90;;;;;;5034005;28;20515;-77
2022/09/04 12:54:03;;;;;;;2.38;1.20;;;10.00;99.90;;;;;;5024087;28;20029;-77
2022/09/04 12:57:08;;;;;;;2.30;1.20;;;10.00;99.90;;;;;;5033667;28;20018;-77
2022/09/04 12:59:47;;;;;;;3.72;1.48;;;10.00;99.90;;;;;;4970023;28;20269;-77
2022/09/04 13:02:22;;;;;;;9.15;1.88;;;9.90;99.90;;;;;;5020642;28;20034;-77
2022/09/04 13:05:02;;;;;;;3.10;1.58;;;9.90;99.90;;;;;;5033534;28;20524;-77
2022/09/04 13:07:29;;;;;;;3.13;1.63;;;9.80;99.90;;;;;;5033199;28;20054;-76
2022/09/04 13:10:36;;;;;;;6.45;1.33;;;9.80;99.90;;;;;;5031542;28;20031;-77
2022/09/04 13:13:19;;;;;;;3.90;1.95;;;9.80;99.90;;;;;;5029164;28;20417;-76
2022/09/04 13:15:52;;;;;;;3.33;1.20;;;9.70;99.90;;;;;;5029767;28;20029;-77
2022/09/04 13:18:40;;;;;;;3.38;1.25;;;9.70;99.90;;;;;;5050037;28;20029;-76
2022/09/04 13:21:27;;;;;;;2.28;1.15;;;9.70;99.90;;;;;;5050747;28;20547;-76
2022/09/04 13:24:26;;;;;;;7.00;1.73;;;9.70;99.90;;;;;;5049997;28;20029;-76
2022/09/04 13:27:35;;;;;;;1.70;0.95;;;9.60;99.90;;;;;;5049689;28;20021;-76
2022/09/04 13:30:20;;;;;;;5.85;1.65;;;9.60;99.90;;;;;;4990175;28;20423;-77
2022/09/04 13:32:59;;;;;;;3.35;1.45;;;9.60;99.90;;;;;;5045113;28;20037;-76
2022/09/04 13:35:46;;;;;;;1.17;0.77;;;9.60;99.90;;;;;;5048809;28;20481;-76
2022/09/04 13:38:36;;;;;;;4.57;1.70;;;9.50;99.90;;;;;;5050730;28;20029;-76
2022/09/04 13:41:25;;;;;;;5.70;0.80;;;9.50;99.90;;;;;;5049597;28;20020;-76
2022/09/04 13:44:09;;;;;;;4.63;1.73;;;9.50;99.90;;;;;;5022547;28;20429;-77
2022/09/04 13:46:58;;;;;;;3.30;0.80;;;9.50;99.90;;;;;;5040672;28;20104;-76
2022/09/04 13:49:38;;;;;;;4.28;1.10;;;9.50;99.90;;;;;;5042039;28;20083;-76
2022/09/04 13:52:47;;;;;;;3.67;1.27;;;9.40;99.90;;;;;;5042236;28;20111;-76
2022/09/04 13:55:22;;;;;;;3.60;1.13;;;9.40;99.90;;;;;;5031325;28;20031;-77
2022/09/04 13:58:18;;;;;;;3.50;1.40;;;9.40;99.90;;;;;;5036595;28;20103;-76
2022/09/04 14:01:08;;;;;;;4.13;1.65;;;9.30;99.90;;;;;;5043797;28;20082;-76
2022/09/04 14:03:59;;;;;;;2.22;1.10;;;9.30;99.90;;;;;;5044818;28;20029;-77
2022/09/04 14:06:29;;;;;;;4.60;1.23;;;9.30;99.90;;;;;;5042746;28;20497;-77
2022/09/04 14:09:02;;;;;;;1.92;0.77;;;9.20;99.90;;;;;;5035549;28;20029;-77
2022/09/04 14:35:34;;;;;;;3.35;1.52;;;9.20;99.90;;;;;;5041758;28;20071;-78
2022/09/04 14:38:34;;;;;;;7.22;1.67;;;9.20;99.90;;;;;;5036050;28;20025;-77
2022/09/04 14:41:14;;;;;;;3.42;0.90;;;9.20;99.90;;;;;;5033506;28;20104;-77
2022/09/04 14:44:00;;;;;;;6.70;1.90;;;9.20;99.90;;;;;;5033928;28;20128;-76
2022/09/04 14:46:37;;;;;;;1.98;1.30;;;9.20;99.90;;;;;;5033824;28;20083;-77
2022/09/04 14:49:14;;;;;;;3.38;1.45;;;9.20;99.90;;;;;;5033625;28;20386;-77
2022/09/04 14:51:45;;;;;;;4.10;1.60;;;9.10;99.90;;;;;;5033713;28;20054;-77
2022/09/04 14:54:22;;;;;;;6.40;1.08;;;9.20;99.90;;;;;;5033239;28;20021;-77
2022/09/04 14:56:59;;;;;;;2.00;1.35;;;9.20;99.90;;;;;;5015672;28;20026;-77
2022/09/04 14:59:32;;;;;;;2.65;1.17;;;9.10;99.90;;;;;;5033107;28;20470;-77